Time;durP1;ratioP1;P1;durP2;ratioP2;P2;SDS_P1;SDS_P2;PMS_P1;PMS_P2;Temp;Humidity;BMP_temperature;BMP_pressure;BME280_temperature;BME280_humidity;BME280_pressure;Samples;Min_cycle;Max_cycle;Signal;HPM_P1;HPM_P2
2022/04/23 00:01:47;;;;;;;14.02;5.47;;;;;;;9.84;100.00;101463.63;5075746;28;20071;-82
2022/04/23 00:04:14;;;;;;;16.15;6.10;;;;;;;9.85;100.00;101447.00;5075269;28;20059;-82
2022/04/23 00:06:43;;;;;;;15.80;6.82;;;;;;;9.94;100.00;101456.41;5075233;28;20691;-82
2022/04/23 00:09:09;;;;;;;16.52;6.43;;;;;;;9.90;100.00;101475.69;5073305;28;20077;-82
2022/04/23 00:11:36;;;;;;;13.57;6.20;;;;;;;9.76;100.00;101456.84;5074965;28;20044;-82
2022/04/23 00:14:07;;;;;;;12.38;5.00;;;;;;;10.24;100.00;101496.69;5075582;28;20056;-82
2022/04/23 00:16:34;;;;;;;12.85;6.35;;;;;;;9.94;100.00;101493.03;5054177;28;20107;-82
2022/04/23 00:19:02;;;;;;;14.82;6.32;;;;;;;9.89;100.00;101474.81;5072253;28;20102;-82
2022/04/23 00:21:28;;;;;;;14.05;5.68;;;;;;;9.92;100.00;101450.34;5074363;28;20500;-82
2022/04/23 00:23:55;;;;;;;13.40;5.32;;;;;;;9.83;100.00;101479.34;5075555;28;20052;-82
2022/04/23 00:26:22;;;;;;;11.38;5.35;;;;;;;9.96;100.00;101474.69;5075392;28;20052;-82
2022/04/23 00:28:49;;;;;;;11.77;5.15;;;;;;;9.56;100.00;101429.38;5073774;28;20048;-82
2022/04/23 00:31:15;;;;;;;12.68;5.53;;;;;;;9.77;100.00;101435.84;5072752;28;20545;-82
2022/04/23 00:33:42;;;;;;;16.23;5.80;;;;;;;9.48;100.00;101395.56;5073835;28;20055;-82
2022/04/23 00:36:10;;;;;;;10.02;4.45;;;;;;;9.87;100.00;101467.91;5074905;28;20048;-82
2022/04/23 00:38:39;;;;;;;12.90;4.82;;;;;;;9.56;100.00;101395.41;5061767;28;20053;-82
2022/04/23 00:41:07;;;;;;;11.77;5.20;;;;;;;9.86;100.00;101453.09;5070222;28;20541;-82
2022/04/23 00:43:34;;;;;;;17.83;6.53;;;;;;;9.69;100.00;101454.34;5075226;28;20044;-82
2022/04/23 00:46:02;;;;;;;13.65;6.63;;;;;;;9.62;100.00;101446.69;5069879;28;20051;-82
2022/04/23 00:48:30;;;;;;;14.20;5.68;;;;;;;9.36;100.00;101388.00;5054173;28;20102;-82
2022/04/23 00:50:59;;;;;;;14.48;6.38;;;;;;;9.27;100.00;101404.72;5072840;28;20048;-82
2022/04/23 00:53:27;;;;;;;13.50;6.53;;;;;;;9.38;100.00;101416.72;5053965;28;20399;-82
2022/04/23 00:55:54;;;;;;;12.82;6.30;;;;;;;9.31;100.00;101403.78;5053730;28;20049;-82
2022/04/23 00:58:23;;;;;;;17.77;7.72;;;;;;;8.95;100.00;101379.28;5053510;28;20045;-82
2022/04/23 01:00:50;;;;;;;16.17;7.78;;;;;;;9.04;100.00;101415.66;5065454;28;20470;-83
2022/04/23 01:03:17;;;;;;;16.83;7.35;;;;;;;9.04;100.00;101409.59;5074971;28;20490;-82
2022/04/23 01:05:45;;;;;;;14.15;6.70;;;;;;;8.78;100.00;101378.75;5074776;28;20048;-82
2022/04/23 01:08:18;;;;;;;17.50;8.07;;;;;;;9.09;100.00;101415.56;5073317;28;20044;-82
2022/04/23 01:10:45;;;;;;;;;;;;;;;9.22;100.00;101422.25;5074349;28;20049;-82
2022/04/23 01:13:14;;;;;;;14.23;7.07;;;;;;;9.24;100.00;101409.16;5074425;28;19924;-82
2022/04/23 01:15:58;;;;;;;14.50;7.18;;;;;;;8.66;100.00;101340.72;5073998;28;20049;-82
2022/04/23 01:18:25;;;;;;;19.50;8.15;;;;;;;8.85;100.00;101381.25;5074808;28;20057;-82
2022/04/23 01:20:56;;;;;;;14.45;7.32;;;;;;;9.17;100.00;101408.44;5072318;28;20044;-82
2022/04/23 01:23:23;;;;;;;14.02;7.95;;;;;;;8.70;100.00;101391.97;5074613;28;20393;-82
2022/04/23 01:25:54;;;;;;;16.20;8.05;;;;;;;9.25;100.00;101403.06;5074496;28;20049;-82
2022/04/23 01:28:22;;;;;;;17.05;7.28;;;;;;;9.10;100.00;101404.22;5072885;28;20097;-82
2022/04/23 01:30:54;;;;;;;15.30;8.10;;;;;;;9.05;100.00;101400.88;5072018;28;20478;-82
2022/04/23 01:33:21;;;;;;;17.00;8.45;;;;;;;8.68;100.00;101331.97;5074301;28;20044;-82
2022/04/23 01:35:48;;;;;;;14.27;7.70;;;;;;;9.04;100.00;101347.75;5073945;28;20139;-82
2022/04/23 01:38:15;;;;;;;16.80;7.25;;;;;;;9.08;100.00;101398.16;5072930;28;20422;-82
2022/04/23 01:40:42;;;;;;;15.50;6.93;;;;;;;8.99;100.00;101351.34;5071574;28;20051;-82
2022/04/23 01:43:09;;;;;;;12.50;6.22;;;;;;;9.40;100.00;101396.63;5072833;28;20423;-82
2022/04/23 01:45:37;;;;;;;15.60;7.72;;;;;;;9.17;100.00;101363.16;5073239;28;20052;-82
2022/04/23 01:48:05;;;;;;;18.45;8.63;;;;;;;8.95;100.00;101363.63;5072377;28;20052;-82
2022/04/23 01:50:32;;;;;;;16.15;7.28;;;;;;;8.79;100.00;101325.66;5073316;28;20045;-82
2022/04/23 01:52:59;;;;;;;14.90;8.07;;;;;;;8.83;100.00;101342.97;5073732;28;20079;-82
2022/04/23 01:55:26;;;;;;;14.85;6.70;;;;;;;9.22;100.00;101359.53;5059296;28;20605;-82
2022/04/23 01:57:53;;;;;;;17.88;9.07;;;;;;;8.92;100.00;101348.00;5057004;28;20076;-82
2022/04/23 02:00:19;;;;;;;17.55;9.43;;;;;;;8.67;100.00;101334.59;5072499;28;20048;-82
2022/04/23 02:02:46;;;;;;;15.35;8.30;;;;;;;9.13;100.00;101368.44;5071948;28;20052;-82
2022/04/23 02:05:13;;;;;;;13.73;6.82;;;;;;;9.08;100.00;101348.53;5072794;28;20048;-82
2022/04/23 02:07:42;;;;;;;17.60;9.27;;;;;;;9.05;100.00;101385.19;5071548;28;20049;-82
2022/04/23 02:10:14;;;;;;;16.70;7.32;;;;;;;9.22;100.00;101359.53;5071133;28;20058;-81
2022/04/23 02:12:42;;;;;;;16.95;8.60;;;;;;;9.31;100.00;101388.09;5073424;28;20625;-82
2022/04/23 02:15:11;;;;;;;11.70;6.18;;;;;;;9.15;100.00;101341.44;5072105;28;20057;-81
2022/04/23 02:17:42;;;;;;;13.90;7.38;;;;;;;8.68;100.00;101318.06;5057567;28;20067;-82
2022/04/23 02:20:11;;;;;;;14.70;6.53;;;;;;;9.07;100.00;101352.06;5059180;28;20056;-82
2022/04/23 02:22:38;;;;;;;17.48;7.63;;;;;;;8.99;100.00;101373.09;5072490;28;20059;-82
2022/04/23 02:25:06;;;;;;;15.13;6.15;;;;;;;8.86;100.00;101308.97;5073130;28;20140;-82
2022/04/23 02:27:59;;;;;;;16.65;8.45;;;;;;;9.11;100.00;101380.69;5072190;28;20075;-82
2022/04/23 02:30:26;;;;;;;13.93;6.50;;;;;;;8.98;100.00;101339.16;5070494;28;20494;-81
2022/04/23 02:32:53;;;;;;;17.30;9.13;;;;;;;8.70;100.00;101366.72;5071207;28;20044;-81
2022/04/23 02:35:20;;;;;;;14.30;7.43;;;;;;;8.68;100.00;101337.19;5071549;28;20102;-81
2022/04/23 02:37:53;;;;;;;17.08;9.15;;;;;;;9.01;100.00;101379.19;5071595;28;20048;-81
2022/04/23 02:40:19;;;;;;;15.57;7.90;;;;;;;8.87;100.00;101345.50;5070204;28;20068;-81
2022/04/23 02:42:47;;;;;;;14.25;7.05;;;;;;;9.06;100.00;101368.59;5071829;28;20055;-81
2022/04/23 02:45:15;;;;;;;17.33;9.02;;;;;;;8.90;100.00;101358.47;5072552;28;20041;-82
2022/04/23 02:47:50;;;;;;;13.48;6.50;;;;;;;9.01;100.00;101354.78;5076319;28;20082;-82
2022/04/23 02:50:31;;;;;;;16.10;8.77;;;;;;;8.83;100.00;101374.31;5070556;28;20049;-82
2022/04/23 02:52:59;;;;;;;20.48;10.98;;;;;;;8.55;100.00;101333.06;5071093;28;20070;-81
2022/04/23 02:55:28;;;;;;;16.33;8.40;;;;;;;8.64;100.00;101317.25;5074507;28;20119;-81
2022/04/23 02:57:57;;;;;;;18.73;9.75;;;;;;;8.52;100.00;101313.13;5091490;28;20052;-81
2022/04/23 03:00:23;;;;;;;20.00;9.65;;;;;;;8.83;100.00;101345.59;5079563;28;20131;-82
2022/04/23 03:02:52;;;;;;;16.92;8.45;;;;;;;8.77;100.00;101362.25;5071048;28;20053;-82
2022/04/23 03:05:20;;;;;;;22.73;10.40;;;;;;;8.35;100.00;101310.81;5058195;28;20053;-82
2022/04/23 03:07:48;;;;;;;18.25;8.20;;;;;;;8.63;100.00;101351.22;5084783;28;20059;-82
2022/04/23 03:10:18;;;;;;;18.75;8.13;;;;;;;8.57;100.00;101349.59;5060548;28;20131;-81
2022/04/23 03:12:45;;;;;;;20.77;10.90;;;;;;;8.39;100.00;101311.59;5071708;28;20060;-82
2022/04/23 03:15:14;;;;;;;17.55;8.00;;;;;;;8.52;100.00;101292.25;5071774;28;20044;-82
2022/04/23 03:17:41;;;;;;;23.00;12.05;;;;;;;8.10;100.00;101307.78;5066970;28;20397;-79
2022/04/23 03:20:09;;;;;;;19.17;9.25;;;;;;;8.60;100.00;101372.16;5058016;28;20580;-79
2022/04/23 03:22:37;;;;;;;21.88;11.75;;;;;;;8.54;100.00;101347.03;5069997;28;20056;-80
2022/04/23 03:25:08;;;;;;;17.50;7.72;;;;;;;8.80;100.00;101374.34;5071144;28;20052;-80
2022/04/23 03:27:36;;;;;;;19.60;8.30;;;;;;;8.60;100.00;101349.50;5069677;28;20083;-79
2022/04/23 03:30:04;;;;;;;20.92;9.95;;;;;;;8.47;100.00;101337.59;5070734;28;20654;-80
2022/04/23 03:32:34;;;;;;;20.73;9.68;;;;;;;8.42;100.00;101329.84;5070565;28;20059;-81
2022/04/23 03:35:01;;;;;;;27.02;13.00;;;;;;;8.62;100.00;101357.31;5070891;28;20470;-81
2022/04/23 03:37:28;;;;;;;25.55;11.80;;;;;;;8.62;100.00;101346.88;5071543;28;20135;-81
2022/04/23 03:39:55;;;;;;;25.10;12.85;;;;;;;8.05;100.00;101333.09;5070740;28;20052;-82
2022/04/23 03:42:22;;;;;;;26.10;13.57;;;;;;;8.16;100.00;101310.31;5059686;28;20044;-81
2022/04/23 03:44:49;;;;;;;20.20;10.57;;;;;;;8.39;100.00;101329.03;5071989;28;20148;-79
2022/04/23 03:47:16;;;;;;;23.90;11.52;;;;;;;8.49;100.00;101334.06;5086347;28;20131;-80
2022/04/23 03:49:43;;;;;;;29.38;15.70;;;;;;;8.27;100.00;101322.28;5071655;28;20053;-80
2022/04/23 03:52:10;;;;;;;21.58;11.18;;;;;;;8.74;100.00;101362.28;5071449;28;20053;-81
2022/04/23 03:54:37;;;;;;;21.98;10.73;;;;;;;8.86;100.00;101337.69;5057971;28;20048;-82
2022/04/23 03:57:05;;;;;;;25.85;13.45;;;;;;;9.01;100.00;101367.84;5055744;28;20376;-81
2022/04/23 03:59:32;;;;;;;26.48;13.98;;;;;;;8.60;100.00;101338.22;5068131;28;20059;-82
2022/04/23 04:02:04;;;;;;;23.63;11.32;;;;;;;8.77;100.00;101338.75;5051991;28;20049;-82
2022/04/23 04:04:32;;;;;;;21.00;10.77;;;;;;;9.17;100.00;101343.13;5051984;28;20110;-82
2022/04/23 04:07:00;;;;;;;20.17;9.85;;;;;;;9.20;100.00;101360.47;5050792;28;20064;-82
2022/04/23 04:09:28;;;;;;;19.90;10.45;;;;;;;9.11;100.00;101379.81;5053049;28;20060;-82
2022/04/23 04:12:01;;;;;;;20.13;10.27;;;;;;;9.19;100.00;101369.19;5071840;28;20050;-81
2022/04/23 04:14:30;;;;;;;21.38;10.75;;;;;;;9.17;100.00;101392.78;5071217;28;20496;-82
2022/04/23 04:17:01;;;;;;;26.40;10.35;;;;;;;9.25;100.00;101390.00;5072311;28;20048;-81
2022/04/23 04:19:32;;;;;;;31.80;10.85;;;;;;;8.95;100.00;101358.38;5055308;28;20056;-82
2022/04/23 04:22:02;;;;;;;28.15;12.75;;;;;;;8.78;100.00;101397.03;5070242;28;20044;-79
2022/04/23 04:24:31;;;;;;;28.70;11.60;;;;;;;8.49;100.00;101386.25;5071503;28;20497;-81
2022/04/23 04:26:58;;;;;;;24.98;12.25;;;;;;;8.38;100.00;101380.34;5070546;28;20083;-80
2022/04/23 04:29:26;;;;;;;30.58;12.05;;;;;;;8.46;100.00;101381.09;5071117;28;20148;-84
2022/04/23 04:31:53;;;;;;;28.70;10.80;;;;;;;8.93;100.00;101396.75;5070369;28;20052;-80
2022/04/23 04:34:28;;;;;;;27.20;10.52;;;;;;;8.91;100.00;101398.53;5071743;28;20055;-83
2022/04/23 04:37:06;;;;;;;27.55;11.82;;;;;;;8.88;100.00;101407.28;5076021;28;20479;-83
2022/04/23 04:39:33;;;;;;;39.78;11.73;;;;;;;8.60;100.00;101365.16;5074846;28;20036;-82
2022/04/23 04:41:59;;;;;;;33.78;11.40;;;;;;;8.90;100.00;101402.88;5075297;28;20482;-82
2022/04/23 04:44:26;;;;;;;48.90;14.15;;;;;;;8.81;100.00;101413.50;5074247;28;20045;-82
2022/04/23 04:46:53;;;;;;;39.90;10.43;;;;;;;8.84;100.00;101361.22;5075252;28;20055;-82
2022/04/23 04:49:22;;;;;;;25.17;8.07;;;;;;;9.26;100.00;101381.22;5075047;28;20059;-82
2022/04/23 04:51:50;;;;;;;33.92;12.25;;;;;;;9.18;100.00;101417.13;5075180;28;20127;-82
2022/04/23 04:54:21;;;;;;;27.05;9.68;;;;;;;9.18;100.00;101393.63;5073858;28;20052;-82
2022/04/23 04:56:52;;;;;;;32.42;11.40;;;;;;;9.11;100.00;101437.31;5072117;28;20428;-82
2022/04/23 04:59:22;;;;;;;24.65;10.27;;;;;;;9.19;100.00;101443.25;5072620;28;20048;-83
2022/04/23 05:01:52;;;;;;;35.83;11.40;;;;;;;9.10;100.00;101444.28;5065046;28;20050;-82
2022/04/23 05:04:20;;;;;;;27.15;8.52;;;;;;;9.22;100.00;101419.63;5062413;28;20052;-82
2022/04/23 05:06:49;;;;;;;27.27;10.45;;;;;;;8.81;100.00;101371.72;5067185;28;20055;-82
2022/04/23 05:09:16;;;;;;;41.17;10.77;;;;;;;8.89;100.00;101422.06;5059705;28;20044;-82
2022/04/23 05:11:43;;;;;;;26.95;9.75;;;;;;;8.81;100.00;101430.94;5057062;28;20049;-82
2022/04/23 05:14:10;;;;;;;22.52;7.78;;;;;;;9.06;100.00;101405.19;5065311;28;20514;-82
2022/04/23 05:16:37;;;;;;;23.58;7.97;;;;;;;8.89;100.00;101382.03;5062518;28;20053;-82
2022/04/23 05:19:04;;;;;;;31.88;8.75;;;;;;;8.83;100.00;101396.06;5073359;28;20048;-81
2022/04/23 05:21:30;;;;;;;26.90;8.07;;;;;;;9.09;100.00;101413.81;5074121;28;20056;-82
2022/04/23 05:23:57;;;;;;;25.42;8.27;;;;;;;8.85;100.00;101417.81;5074748;28;20044;-82
2022/04/23 05:26:24;;;;;;;28.58;7.75;;;;;;;9.32;100.00;101454.28;5075060;28;20478;-83
2022/04/23 05:28:51;;;;;;;34.55;9.50;;;;;;;9.28;100.00;101450.88;5061468;28;20071;-82
2022/04/23 05:31:18;;;;;;;27.33;7.30;;;;;;;9.08;100.00;101399.06;5060049;28;20045;-81
2022/04/23 05:33:45;;;;;;;27.20;8.00;;;;;;;9.06;100.00;101416.47;5060359;28;20490;-81
2022/04/23 05:36:11;;;;;;;31.92;9.52;;;;;;;8.93;100.00;101388.91;5063610;28;20052;-80
2022/04/23 05:38:38;;;;;;;23.60;8.15;;;;;;;9.12;100.00;101455.56;5060682;28;20053;-80
2022/04/23 05:41:05;;;;;;;28.88;8.93;;;;;;;8.89;100.00;101448.19;5062565;28;20457;-82
2022/04/23 05:43:32;;;;;;;26.00;8.27;;;;;;;8.67;100.00;101441.63;5067699;28;20055;-81
2022/04/23 05:46:00;;;;;;;36.72;9.82;;;;;;;8.95;100.00;101441.97;5066451;28;20076;-81
2022/04/23 05:48:27;;;;;;;33.05;9.80;;;;;;;8.72;100.00;101438.03;5070094;28;20114;-81
2022/04/23 05:50:54;;;;;;;33.13;8.82;;;;;;;8.74;100.00;101453.69;5072276;28;20052;-81
2022/04/23 05:53:21;;;;;;;25.40;8.57;;;;;;;8.83;100.00;101442.19;5073767;28;20148;-82
2022/04/23 05:55:49;;;;;;;35.30;9.23;;;;;;;9.02;100.00;101440.94;5055998;28;20056;-82
2022/04/23 05:58:16;;;;;;;39.05;10.93;;;;;;;8.93;100.00;101423.72;5067961;28;20475;-82
2022/04/23 06:00:43;;;;;;;34.33;8.57;;;;;;;8.96;100.00;101419.31;5064960;28;20053;-82
2022/04/23 06:03:11;;;;;;;33.03;8.60;;;;;;;9.18;100.00;101422.38;5066924;28;20079;-81
2022/04/23 06:05:39;;;;;;;29.20;10.40;;;;;;;8.86;100.00;101439.53;5079581;28;20473;-81
2022/04/23 06:08:06;;;;;;;28.20;9.05;;;;;;;8.95;100.00;101433.28;5061855;28;20055;-81
2022/04/23 06:10:34;;;;;;;38.08;12.30;;;;;;;9.27;100.00;101477.03;5070882;28;20044;-82
2022/04/23 06:13:01;;;;;;;26.48;8.40;;;;;;;9.43;100.00;101467.13;5069123;28;20067;-83
2022/04/23 06:15:29;;;;;;;27.83;9.05;;;;;;;9.42;100.00;101468.00;5065893;28;20055;-81
2022/04/23 06:17:56;;;;;;;31.58;10.93;;;;;;;9.08;100.00;101437.34;5063876;28;20459;-82
2022/04/23 06:20:22;;;;;;;29.00;8.57;;;;;;;9.32;100.00;101470.81;5064641;28;20064;-82
2022/04/23 06:22:49;;;;;;;21.70;7.80;;;;;;;9.30;100.00;101469.16;5088030;28;20044;-82
2022/04/23 06:25:16;;;;;;;21.70;6.53;;;;;;;9.10;100.00;101446.00;5092069;28;20637;-83
2022/04/23 06:27:43;;;;;;;27.58;7.40;;;;;;;8.92;100.00;101462.91;5092518;28;20058;-82
2022/04/23 06:30:10;;;;;;;22.75;7.72;;;;;;;9.09;100.00;101478.28;5072012;28;20445;-82
2022/04/23 06:32:40;;;;;;;25.92;7.25;;;;;;;9.40;100.00;101469.81;5070723;28;20048;-82
2022/04/23 06:35:07;;;;;;;21.23;7.30;;;;;;;9.27;100.00;101477.03;5070541;28;20056;-82
2022/04/23 06:37:41;;;;;;;24.77;7.25;;;;;;;9.22;100.00;101458.84;5072885;28;20044;-82
2022/04/23 06:40:13;;;;;;;32.53;9.50;;;;;;;8.85;100.00;101464.81;5069393;28;20051;-82
2022/04/23 06:42:41;;;;;;;21.38;7.32;;;;;;;9.35;100.00;101477.75;5059588;28;20052;-82
2022/04/23 06:45:08;;;;;;;25.50;7.22;;;;;;;9.38;100.00;101474.19;5084687;28;20051;-82
2022/04/23 06:47:35;;;;;;;19.63;7.32;;;;;;;9.41;100.00;101463.69;5052690;28;20055;-82
2022/04/23 06:50:02;;;;;;;26.33;8.55;;;;;;;9.15;100.00;101485.97;5058094;28;20131;-82
2022/04/23 06:52:29;;;;;;;25.13;7.45;;;;;;;9.24;100.00;101472.75;5071209;28;20131;-82
2022/04/23 06:54:56;;;;;;;31.35;9.98;;;;;;;8.96;100.00;101476.78;5071355;28;20053;-82
2022/04/23 06:57:24;;;;;;;24.48;8.02;;;;;;;8.95;100.00;101468.09;5070129;28;20049;-82
2022/04/23 06:59:51;;;;;;;22.52;6.60;;;;;;;9.19;100.00;101479.81;5069790;28;20393;-82
2022/04/23 07:02:19;;;;;;;26.40;6.80;;;;;;;8.99;100.00;101467.13;5070478;28;20044;-81
2022/04/23 07:04:46;;;;;;;26.23;9.52;;;;;;;9.50;100.00;101472.19;5079158;28;20129;-82
2022/04/23 07:07:13;;;;;;;24.08;7.03;;;;;;;9.06;100.00;101473.09;5076836;28;20052;-82
2022/04/23 07:09:40;;;;;;;17.80;6.00;;;;;;;9.13;100.00;101477.31;5069807;28;20059;-81
2022/04/23 07:12:07;;;;;;;16.02;5.70;;;;;;;9.50;100.00;101487.03;5064242;28;20049;-82
2022/04/23 07:14:34;;;;;;;17.10;5.63;;;;;;;9.42;100.00;101481.97;5083979;28;20051;-82
2022/04/23 07:17:06;;;;;;;21.40;6.13;;;;;;;9.56;100.00;101486.91;5074781;28;20058;-82
2022/04/23 07:19:38;;;;;;;22.65;6.97;;;;;;;9.50;100.00;101492.25;5075479;28;20052;-82
2022/04/23 07:22:06;;;;;;;16.17;5.72;;;;;;;9.20;100.00;101481.53;5070569;28;20055;-82
2022/04/23 07:24:33;;;;;;;20.80;6.97;;;;;;;9.44;100.00;101487.16;5059255;28;20693;-82
2022/04/23 07:27:00;;;;;;;21.58;6.35;;;;;;;9.44;100.00;101481.94;5070236;28;20076;-82
2022/04/23 07:29:28;;;;;;;22.50;6.45;;;;;;;9.85;100.00;101491.47;5068871;28;20052;-82
2022/04/23 07:31:56;;;;;;;20.13;6.30;;;;;;;9.61;100.00;101505.94;5071297;28;20048;-82
2022/04/23 07:37:31;;;;;;;22.13;5.78;;;;;;;9.56;100.00;101496.47;5041574;28;20057;-83
2022/04/23 07:40:00;;;;;;;21.58;5.97;;;;;;;9.88;100.00;101501.03;5055954;28;20127;-83
2022/04/23 07:42:27;;;;;;;20.65;6.65;;;;;;;9.78;100.00;101495.13;5060539;28;20094;-83
2022/04/23 07:44:54;;;;;;;22.08;5.75;;;;;;;9.86;100.00;101502.78;5063688;28;20044;-83
2022/04/23 07:47:21;;;;;;;21.83;7.43;;;;;;;9.83;100.00;101464.50;5070020;28;20053;-83
2022/04/23 07:49:48;;;;;;;22.83;5.68;;;;;;;9.65;100.00;101444.88;5068022;28;20402;-83
2022/04/23 07:52:15;;;;;;;21.02;6.45;;;;;;;9.92;100.00;101488.75;5068596;28;20082;-83
2022/04/23 07:54:43;;;;;;;16.75;5.57;;;;;;;10.03;100.00;101491.97;5064281;28;20045;-83
2022/04/23 07:57:12;;;;;;;26.75;6.93;;;;;;;9.57;100.00;101493.00;5065403;28;20048;-83
2022/04/23 07:59:42;;;;;;;25.23;6.00;;;;;;;9.98;100.00;101480.72;5069374;28;20502;-83
2022/04/23 08:02:09;;;;;;;21.38;6.55;;;;;;;9.88;100.00;101487.94;5067264;28;20474;-83
2022/04/23 08:04:37;;;;;;;23.17;6.50;;;;;;;9.51;100.00;101483.53;5063730;28;20630;-83
2022/04/23 08:07:04;;;;;;;27.50;6.88;;;;;;;9.50;100.00;101472.19;5057135;28;20041;-83
2022/04/23 08:09:37;;;;;;;24.98;7.53;;;;;;;9.86;100.00;101466.19;5065436;28;20048;-83
2022/04/23 08:12:06;;;;;;;15.57;6.00;;;;;;;10.10;100.00;101480.44;5064993;28;20052;-83
2022/04/23 08:14:33;;;;;;;25.65;6.28;;;;;;;10.05;100.00;101464.84;5072620;28;20409;-82
2022/04/23 08:17:00;;;;;;;20.13;6.38;;;;;;;10.00;100.00;101487.63;5073537;28;20059;-82
2022/04/23 08:19:27;;;;;;;21.10;6.32;;;;;;;10.50;100.00;101473.41;5067461;28;20756;-83
2022/04/23 08:21:54;;;;;;;22.48;5.38;;;;;;;10.26;100.00;101460.00;5071179;28;20051;-82
2022/04/23 08:24:21;;;;;;;21.52;6.05;;;;;;;10.54;100.00;101452.34;5073845;28;20048;-82
2022/04/23 08:26:47;;;;;;;23.92;6.65;;;;;;;10.38;100.00;101451.03;5073404;28;20512;-83
2022/04/23 08:31:59;;;;;;;19.80;5.82;;;;;;;9.97;100.00;101442.38;5072210;28;20086;-81
2022/04/23 08:34:26;;;;;;;23.08;6.40;;;;;;;10.31;100.00;101458.16;5068751;28;20044;-82
2022/04/23 08:36:54;;;;;;;16.85;5.30;;;;;;;11.00;100.00;101466.81;5062054;28;20044;-81
2022/04/23 08:39:20;;;;;;;27.75;6.05;;;;;;;11.20;100.00;101458.38;5064077;28;20050;-83
2022/04/23 08:41:48;;;;;;;27.17;6.10;;;;;;;11.14;100.00;101461.19;5069891;28;20040;-83
2022/04/23 08:44:16;;;;;;;20.67;5.78;;;;;;;10.59;100.00;101434.75;5071560;28;20540;-83
2022/04/23 08:46:44;;;;;;;21.58;6.65;;;;;;;10.96;100.00;101445.97;5073357;28;20048;-83
2022/04/23 08:49:16;;;;;;;18.67;6.18;;;;;;;11.62;100.00;101461.59;5069099;28;20077;-83
2022/04/23 08:51:50;;;;;;;20.98;5.82;;;;;;;11.71;100.00;101471.78;5070204;28;20068;-83
2022/04/23 08:54:17;;;;;;;17.45;5.28;;;;;;;11.29;100.00;101480.00;5062710;28;20063;-83
2022/04/23 08:56:46;;;;;;;22.15;5.80;;;;;;;10.86;100.00;101460.25;5053146;28;20071;-83
2022/04/23 08:59:14;;;;;;;23.20;5.32;;;;;;;11.30;100.00;101466.88;5069496;28;20066;-84
2022/04/23 09:01:47;;;;;;;23.65;5.63;;;;;;;10.70;100.00;101465.03;5057691;28;20040;-83
2022/04/23 09:04:14;;;;;;;25.15;5.93;;;;;;;11.09;100.00;101457.00;5072454;28;20048;-83
2022/04/23 09:06:43;;;;;;;19.63;4.80;;;;;;;11.74;100.00;101472.53;5073714;28;20075;-83
2022/04/23 09:09:19;;;;;;;20.08;5.75;;;;;;;11.78;100.00;101474.16;5073470;28;20084;-83
2022/04/23 09:12:07;;;;;;;18.48;5.28;;;;;;;11.36;100.00;101468.44;5068431;28;20049;-84
2022/04/23 09:14:34;;;;;;;20.48;5.50;;;;;;;11.50;100.00;101465.41;5053757;28;20051;-83
2022/04/23 09:25:31;;;;;;;17.90;5.38;;;;;;;11.96;100.00;101464.03;5073236;28;20063;-83
2022/04/23 09:28:23;;;;;;;27.02;5.90;;;;;;;12.21;100.00;101473.75;5070554;28;20045;-83
2022/04/23 09:30:54;;;;;;;21.50;5.28;;;;;;;11.84;100.00;101443.41;5067513;28;20052;-84
2022/04/23 09:33:41;;;;;;;18.00;4.72;;;;;;;12.05;100.00;101447.97;5070585;28;20065;-83
2022/04/23 09:36:08;;;;;;;17.95;5.30;;;;;;;11.88;100.00;101455.50;5078309;28;20055;-83
2022/04/23 09:38:35;;;;;;;21.73;4.50;;;;;;;11.92;100.00;101468.53;5072941;28;20052;-81
2022/04/23 09:41:15;;;;;;;23.17;5.35;;;;;;;11.81;100.00;101459.22;5071752;28;20463;-82
2022/04/23 09:43:44;;;;;;;22.70;5.35;;;;;;;11.97;100.00;101460.53;5065732;28;20055;-82
2022/04/23 09:46:12;;;;;;;18.45;4.82;;;;;;;11.96;100.00;101450.91;5073005;28;20041;-81
2022/04/23 09:48:43;;;;;;;18.70;5.25;;;;;;;11.94;100.00;101445.72;5073351;28;20136;-82
2022/04/23 09:51:24;;;;;;;14.93;4.45;;;;;;;12.35;100.00;101434.75;5071396;28;20048;-82
2022/04/23 09:53:54;;;;;;;19.73;4.68;;;;;;;12.28;100.00;101436.72;5071814;28;20059;-82
2022/04/23 09:56:24;;;;;;;19.65;5.93;;;;;;;12.27;100.00;101431.53;5071114;28;20474;-82
2022/04/23 09:58:51;;;;;;;17.92;5.03;;;;;;;12.54;100.00;101406.94;5072571;28;20407;-82
2022/04/23 10:01:20;;;;;;;17.08;5.57;;;;;;;12.54;100.00;101419.22;5070907;28;20079;-82
2022/04/23 10:03:52;;;;;;;17.60;4.18;;;;;;;12.50;100.00;101420.22;5064369;28;20302;-82
2022/04/23 10:06:21;;;;;;;18.90;5.10;;;;;;;12.50;100.00;101433.38;5061246;28;20057;-82
2022/04/23 10:08:52;;;;;;;19.20;4.25;;;;;;;13.29;100.00;101408.59;5053962;28;20127;-82
2022/04/23 10:11:25;;;;;;;17.38;4.28;;;;;;;13.68;100.00;101415.03;5069438;28;20496;-82
2022/04/23 10:13:59;;;;;;;17.85;4.80;;;;;;;13.29;100.00;101421.72;5060348;28;20060;-82
2022/04/23 10:16:29;;;;;;;13.02;3.47;;;;;;;13.69;100.00;101411.47;5066210;28;20082;-82
2022/04/23 10:18:57;;;;;;;16.95;4.28;;;;;;;13.53;100.00;101415.63;5072551;28;20127;-82
2022/04/23 10:21:42;;;;;;;19.70;4.20;;;;;;;13.58;100.00;101411.03;5062534;28;20060;-82
2022/04/23 10:24:18;;;;;;;17.05;4.70;;;;;;;13.54;100.00;101399.78;5063017;28;20056;-81
2022/04/23 10:26:52;;;;;;;18.48;4.72;;;;;;;13.56;100.00;101400.56;5067931;28;20080;-82
2022/04/23 10:29:23;;;;;;;15.73;4.25;;;;;;;13.93;100.00;101404.34;5084652;28;20081;-82
2022/04/23 10:32:11;;;;;;;16.08;4.45;;;;;;;14.13;100.00;101403.53;5068301;28;20052;-82
2022/04/23 10:34:39;;;;;;;18.52;4.82;;;;;;;14.10;100.00;101405.47;5062900;28;20052;-82
2022/04/23 10:37:29;;;;;;;15.63;4.55;;;;;;;13.91;100.00;101394.81;5071756;28;20049;-82
2022/04/23 10:39:56;;;;;;;16.88;4.30;;;;;;;14.07;100.00;101409.06;5065999;28;20517;-82
2022/04/23 10:42:24;;;;;;;20.70;5.07;;;;;;;13.64;100.00;101419.56;5062782;28;20609;-82
2022/04/23 10:44:55;;;;;;;15.90;4.68;;;;;;;14.27;100.00;101362.59;5070400;28;20083;-81
2022/04/23 10:47:36;;;;;;;23.15;4.75;;;;;;;14.34;100.00;101396.53;5071232;28;20080;-81
2022/04/23 10:50:22;;;;;;;18.10;4.72;;;;;;;14.60;100.00;101407.72;5070340;28;20048;-81
2022/04/23 10:52:50;;;;;;;22.58;4.57;;;;;;;13.97;100.00;101413.84;5069788;28;20048;-81
2022/04/23 10:55:17;;;;;;;14.35;3.95;;;;;;;14.45;100.00;101374.97;5070945;28;20534;-81
2022/04/23 10:57:52;;;;;;;17.90;4.88;;;;;;;14.76;100.00;101400.84;5070818;28;20481;-82
2022/04/23 11:00:21;;;;;;;14.43;3.97;;;;;;;14.73;100.00;101385.19;5068339;28;20051;-82
2022/04/23 11:02:54;;;;;;;17.70;5.15;;;;;;;14.23;100.00;101406.63;5060279;28;20051;-82
2022/04/23 11:14:05;;;;;;;15.70;4.95;;;;;;;15.10;100.00;101383.53;5067580;28;20406;-82
2022/04/23 11:16:32;;;;;;;15.00;4.32;;;;;;;14.41;100.00;101340.00;5072344;28;20124;-84
2022/04/23 11:19:01;;;;;;;14.60;4.10;;;;;;;15.16;100.00;101353.34;5068255;28;20055;-85
2022/04/23 11:21:31;;;;;;;18.08;4.15;;;;;;;15.87;100.00;101379.88;5071104;28;20055;-85
2022/04/23 11:23:59;;;;;;;14.52;4.13;;;;;;;16.03;99.47;101393.16;5072928;28;20690;-85
2022/04/23 11:26:47;;;;;;;16.17;4.05;;;;;;;15.66;99.60;101391.44;5070603;28;20116;-85
2022/04/23 11:29:14;;;;;;;16.23;3.80;;;;;;;15.59;100.00;101395.31;5051352;28;20136;-81
2022/04/23 11:31:50;;;;;;;18.40;4.13;;;;;;;15.45;99.33;101357.22;5062479;28;20092;-86
2022/04/23 11:34:17;;;;;;;17.45;4.70;;;;;;;15.13;100.00;101378.09;5065880;28;20083;-86
2022/04/23 11:36:44;;;;;;;16.17;4.57;;;;;;;15.56;100.00;101393.66;5071374;28;20135;-85
2022/04/23 11:39:13;;;;;;;16.17;4.10;;;;;;;15.67;97.47;101411.63;5050851;28;20063;-85
2022/04/23 11:41:42;;;;;;;19.20;4.97;;;;;;;15.88;95.05;101400.06;5070640;28;20221;-85
2022/04/23 11:47:05;;;;;;;18.77;4.13;;;;;;;15.56;100.00;101354.94;5076196;28;20496;-86
2022/04/23 11:49:32;;;;;;;18.42;4.78;;;;;;;15.44;99.69;101352.91;5065494;28;20409;-85